Terminal Aerodrome Forecast
Issued by NWS

Home | Current Version | Previous Version | Text Only | Print | Product List | Glossary On
Versions: 1 2 3 4 5 6 7 8 9 10 11 12 13 14
417
FTUS43 KFGF 132330
TAFTVF
TAF
KTVF 132330Z 1400/1424 14015KT P6SM BKN110
     FM140300 14015KT P6SM BKN040
     FM140900 15018G25KT 2SM -SN OVC015=

USA.gov is the U.S. government's official web portal to all federal, state and local government web resources and services.